Flight Track Log - Related Links

Times and Time Zones

All times are in EDT time to prevent confusion due to time zone crossing. See the TRS457 flight status page for this flight to view local times or setup timezone preferences in your user account.

Time Position Orientation Groundspeed Altitude Reporting Facility
EDT Latitude Longitude Course Direction KTS MPH feet Rate Location/Type
Mon 10:45:18 PM 28.4333 -81.3000 24° Northeast 152 175 1,000  Level Orlando TRACON
Mon 10:45:54 PM 28.4667 -81.2833 24° Northeast 190 219 1,600 2,000 Climbing Orlando TRACON
Mon 10:47:00 PM 28.5333 -81.2667 12° North 260 299 4,400 2,700 Climbing Orlando TRACON
Mon 10:47:54 PM 28.6000 -81.2667 360° North 265 305 7,000 2,378 Climbing Orlando TRACON
Mon 10:49:44 PM 28.7269 -81.3347 335° Northwest 299 344 10,900 2,012 Climbing Jacksonville Center
Mon 10:50:44 PM 28.8192 -81.3736 340° North 322 371 12,700 2,050 Climbing Jacksonville Center
Mon 10:51:44 PM 28.9156 -81.4100 342° North 344 396 15,000 2,300 Climbing Jacksonville Center
Mon 10:52:44 PM 29.0183 -81.4464 343° North 371 427 17,300 2,200 Climbing Jacksonville Center
Mon 10:53:44 PM 29.1231 -81.4831 343° North 376 433 19,400 1,950 Climbing Jacksonville Center
Mon 10:54:44 PM 29.2236 -81.5267 339° North 382 440 21,200 1,533 Climbing Jacksonville Center
Mon 10:56:44 PM 29.4458 -81.6119 342° North 395 455 24,000 1,567 Climbing Jacksonville Center
Mon 10:57:44 PM 29.5506 -81.6464 344° North 406 467 25,900 1,600 Climbing Jacksonville Center
Mon 10:58:44 PM 29.6639 -81.6903 341° North 412 474 27,200 1,350 Climbing Jacksonville Center
Mon 10:59:44 PM 29.7769 -81.7319 342° North 422 486 28,600 1,350 Climbing Jacksonville Center
Mon 11:00:44 PM 29.8900 -81.7739 342° North 422 486 29,900 1,150 Climbing Jacksonville Center
Mon 11:01:44 PM 30.0031 -81.8156 342° North 427 491 30,900 1,150 Climbing Jacksonville Center
Mon 11:02:44 PM 30.1161 -81.8553 343° North 427 491 32,200 1,050 Climbing Jacksonville Center
Mon 11:03:44 PM 30.2292 -81.8900 345° North 427 491 33,000 400 Climbing Jacksonville Center
Mon 11:04:44 PM 30.3583 -81.8669 North 427 491 33,000  Level Jacksonville Center
Mon 11:05:44 PM 30.4814 -81.8511 North 433 498 33,000  Level Jacksonville Center
Mon 11:06:44 PM 30.6214 -81.8353 North 445 512 33,000  Level Jacksonville Center
Mon 11:07:44 PM 30.7442 -81.8194 North 445 512 33,000  Level Jacksonville Center
Mon 11:08:44 PM 30.8656 -81.8253 358° North 440 506 33,000  Level Jacksonville Center
Mon 11:09:44 PM 30.9703 -81.8797 336° Northwest 411 473 33,000  Level Jacksonville Center
Mon 11:10:44 PM 31.0772 -81.9417 334° Northwest 416 479 33,000  Level Jacksonville Center
Mon 11:11:44 PM 31.1800 -82.0064 332° Northwest 417 480 33,000  Level Jacksonville Center
Mon 11:12:44 PM 31.2850 -82.0708 332° Northwest 422 486 33,000  Level Jacksonville Center
Mon 11:13:44 PM 31.3897 -82.1333 333° Northwest 422 486 33,000  Level Jacksonville Center
Mon 11:14:44 PM 31.4944 -82.1933 334° Northwest 415 478 33,000  Level Jacksonville Center
Mon 11:15:44 PM 31.6011 -82.2558 333° Northwest 421 484 33,000  Level Jacksonville Center
Mon 11:16:44 PM 31.7039 -82.3164 333° Northwest 414 476 33,000  Level Jacksonville Center
Mon 11:18:41 PM 31.9072 -82.4339 334° Northwest 418 481 33,000  Level Atlanta Center
Mon 11:19:41 PM 32.0061 -82.4958 332° Northwest 413 475 33,000  Level Atlanta Center
Mon 11:20:41 PM 32.1072 -82.5578 333° Northwest 408 470 33,000  Level Atlanta Center
Mon 11:21:41 PM 32.2183 -82.6003 342° North 408 470 33,000  Level Atlanta Center
Mon 11:22:41 PM 32.3294 -82.6403 343° North 414 476 33,000  Level Atlanta Center
Mon 11:23:41 PM 32.4425 -82.6753 345° North 419 482 33,000  Level Atlanta Center
Mon 11:24:41 PM 32.5536 -82.7156 343° North 419 482 33,000  Level Atlanta Center
Mon 11:25:41 PM 32.6561 -82.7486 345° North 418 481 33,000 150 Level Atlanta Center
Mon 11:26:41 PM 32.7672 -82.7864 344° North 418 481 33,300 500 Climbing Atlanta Center
Mon 11:27:41 PM 32.8803 -82.8269 343° North 418 481 34,000 350 Climbing Atlanta Center
Mon 11:28:41 PM 32.9933 -82.8650 344° North 418 481 34,000  Level Atlanta Center
Mon 11:29:41 PM 33.1086 -82.9031 345° North 418 481 34,000  Level Atlanta Center
Mon 11:30:41 PM 33.2361 -82.9436 345° North 429 494 34,000  Level Atlanta Center
Mon 11:31:41 PM 33.3492 -82.9844 343° North 429 494 34,000  Level Atlanta Center
Mon 11:32:41 PM 33.4603 -83.0228 344° North 416 479 34,000  Level Atlanta Center
Mon 11:33:41 PM 33.5692 -83.0614 344° North 411 473 34,000  Level Atlanta Center
Mon 11:34:41 PM 33.6717 -83.0953 345° North 411 473 34,000  Level Atlanta Center
Mon 11:35:41 PM 33.7825 -83.1342 344° North 416 479 34,000  Level Atlanta Center
Mon 11:36:41 PM 33.8933 -83.1728 344° North 416 479 34,000  Level Atlanta Center
Mon 11:37:41 PM 34.0044 -83.2144 343° North 411 473 34,000  Level Atlanta Center
Mon 11:38:41 PM 34.1131 -83.2508 344° North 416 479 34,000  Level Atlanta Center
Mon 11:39:41 PM 34.2281 -83.2900 344° North 421 484 34,000  Level Atlanta Center
Mon 11:40:41 PM 34.3389 -83.3294 344° North 421 484 34,000  Level Atlanta Center
Mon 11:41:41 PM 34.4500 -83.3714 343° North 421 484 34,000  Level Atlanta Center
Mon 11:42:41 PM 34.5628 -83.4108 344° North 421 484 34,000  Level Atlanta Center
Mon 11:43:41 PM 34.6736 -83.4503 344° North 415 478 34,000  Level Atlanta Center
Mon 11:44:41 PM 34.7822 -83.4900 343° North 409 471 34,000  Level Atlanta Center
Mon 11:45:41 PM 34.8950 -83.5297 344° North 409 471 34,000  Level Atlanta Center
Mon 11:46:41 PM 35.0058 -83.5697 344° North 409 471 34,000  Level Atlanta Center
Mon 11:47:41 PM 35.1208 -83.6097 344° North 414 476 34,000  Level Atlanta Center
Mon 11:48:41 PM 35.2336 -83.6522 343° North 420 483 34,000  Level Atlanta Center
Mon 11:49:41 PM 35.3464 -83.6925 344° North 420 483 34,000  Level Atlanta Center
Mon 11:50:41 PM 35.4614 -83.7353 343° North 420 483 34,000  Level Atlanta Center
Mon 11:51:41 PM 35.5761 -83.7758 344° North 420 483 34,000  Level Atlanta Center
Mon 11:52:41 PM 35.6867 -83.8164 343° North 420 483 34,000  Level Atlanta Center
Mon 11:53:41 PM 35.8017 -83.8594 343° North 420 483 34,000  Level Atlanta Center
Mon 11:54:41 PM 35.9122 -83.8978 344° North 420 483 34,000  Level Atlanta Center
Mon 11:56:59 PM 36.1872 -83.9367 353° North 421 484 34,000  Level Indianapolis Center
Mon 11:58:00 PM 36.3014 -83.9533 353° North 418 481 34,000  Level Indianapolis Center
Mon 11:59:01 PM 36.4156 -83.9708 353° North 415 478 34,000  Level Indianapolis Center
Tue 12:00:02 AM 36.5417 -83.9886 354° North 416 479 34,000  Level Indianapolis Center
Tue 12:01:03 AM 36.6564 -84.0067 353° North 415 478 34,000  Level Indianapolis Center
Tue 12:02:04 AM 36.7736 -84.0239 353° North 418 481 34,000  Level Indianapolis Center
Tue 12:03:04 AM 36.8889 -84.0411 353° North 418 481 34,000 -595 Level Indianapolis Center
Tue 12:04:05 AM 37.0042 -84.0578 353° North 416 479 32,800 -984 Descending Indianapolis Center
Tue 12:05:06 AM 37.1219 -84.0756 353° North 421 484 32,000 -393 Descending Indianapolis Center
Tue 12:06:07 AM 37.2408 -84.0925 354° North 426 490 32,000  Level Indianapolis Center
Tue 12:07:08 AM 37.3572 -84.1119 352° North 423 487 32,000  Level Indianapolis Center
Tue 12:08:09 AM 37.4753 -84.1283 354° North 424 488 32,000 -49 Level Indianapolis Center
Tue 12:09:10 AM 37.5928 -84.1464 353° North 425 489 31,900 -793 Descending Indianapolis Center
Tue 12:10:10 AM 37.7117 -84.1633 354° North 427 491 30,400 -1,488 Descending Indianapolis Center
Tue 12:11:11 AM 37.8275 -84.1856 351° North 422 486 28,900 -1,967 Descending Indianapolis Center
Tue 12:12:12 AM 37.9531 -84.2039 353° North 440 506 26,400 -1,869 Descending Indianapolis Center
Tue 12:13:13 AM 38.0753 -84.2242 353° North 442 509 25,100 -885 Descending Indianapolis Center
Tue 12:14:14 AM 38.2003 -84.2400 354° North 446 513 24,600 -541 Descending Indianapolis Center
Tue 12:15:15 AM 38.3247 -84.2586 353° North 449 517 24,000 -545 Descending Indianapolis Center
Tue 12:16:15 AM 38.4494 -84.2786 353° North 449 517 23,500 -1,686 Descending Indianapolis Center
Tue 12:17:16 AM 38.5922 -84.3003 353° North 442 509 20,600 -2,852 Descending Indianapolis Center
Tue 12:18:17 AM 38.6914 -84.3258 349° North 423 487 17,700 -3,049 Descending Indianapolis Center
Tue 12:19:18 AM 38.7978 -84.3742 341° North 401 461 14,400 -2,231 Descending Indianapolis Center
Tue 12:20:18 AM 38.9033 -84.4217 341° North 397 457 13,200 -992 Descending Indianapolis Center
Tue 12:21:19 AM 39.0083 -84.4681 341° North 396 456 12,400 -847 Descending Indianapolis Center
Tue 12:21:43 AM 39.0667 -84.4833 349° North 393 452 12,000 -381 Descending Cincinnati TRACON
Tue 12:22:22 AM 39.1256 -84.5219 333° Northwest 394 453 12,000 -612 Level Indianapolis Center
Tue 12:23:21 AM 39.2211 -84.5386 352° North 398 458 11,000 -1,050 Descending Indianapolis Center
Tue 12:24:22 AM 39.3150 -84.4672 30° Northeast 391 450 9,900 -545 Descending Indianapolis Center
Tue 12:25:22 AM 39.4017 -84.3978 32° Northeast 376 433 9,900  Level Indianapolis Center
Tue 12:26:23 AM 39.4844 -84.3322 31° Northeast 356 410 9,900 -443 Level Indianapolis Center
Tue 12:27:24 AM 39.5614 -84.2722 31° Northeast 333 383 9,000 -1,537 Descending Indianapolis Center
Tue 12:28:24 AM 39.6325 -84.2161 31° Northeast 305 351 6,800 -1,636 Descending Indianapolis Center
Tue 12:29:25 AM 39.7058 -84.1628 29° Northeast 300 345 5,700 -1,377 Descending Indianapolis Center
Tue 12:30:26 AM 39.7772 -84.1128 28° Northeast 294 338 4,000 -1,190 Descending Indianapolis Center
Tue 12:31:26 AM 39.8467 -84.0664 27° Northeast 285 328 3,300 -545 Descending Indianapolis Center
Tue 12:32:27 AM 39.9136 -84.0533 North 257 296 2,900 -344 Descending Indianapolis Center
Tue 12:33:28 AM 39.9503 -84.1000 316° Northwest 212 244 2,600 -496 Descending Indianapolis Center
Tue 12:34:28 AM 39.9281 -84.1528 241° Southwest 177 204 1,900 -694 Descending Indianapolis Center
Tue 12:35:29 AM 39.9075 -84.1917 235° Southwest 149 171 1,200 -689 Descending Indianapolis Center

Login

Don't have an account? Register now (free) for customized features, flight alerts, and more!